| State | Arizona | Latest | Unknown (6240 cfs) | |
| River | Colorado River | Rating | Observed | Estimated |
| Updated | 2026-05-10 7:00 (29 minutes ago) | Flood - The river is flooding. Obstacles can be treacherous or deadly. The river should be avoided at this stage for casual trips and definitely for the inexperienced. Trips should be attempted only with protective gear and equipment.Flood | (none) | (none) |
| Discharge | 6240 cfs (median: 14400 cfs) | High - The river is high and potentially dangerous, especially for the young and / or inexperienced. Normal stream obstacles are sometimes difficult to navigate. Extended distances can be attempted, but canoe travel may not be advisable.High | (none) | (none) |
| Height | 7.5 feet | Good - Conditions are ideal for a canoe or kayak. Boats typically will drag on fewer than one-quarter of riffles, if at all, and portages are unnecessary or rare. Normal float lengths can be attempted without a problem.Good | (none) | (none) |
| Trend | Falling (falling over 24 hours) | Low - River is low but can still be floated. Some riffles are okay but most come with significant dragging and might need a portage. Float lengths should be reduced to accommodate low flow, dragging, and portages.Low | (none) | (none) |
| USGS | USGS Site ( Duck Duck Go Maps) | Poor - River is too low to float comfortably. Most or all riffles will drag or must be portaged and some obstacles (such as slick shelf rock) cause undue problems. Avoid the river at this stage for casual paddling trips.Poor | (none) | (none) |
| Date | Start | End | Distance | Condition | Discharge | Height | Fishing | Details |
|---|
A total of 0 rows are displayed.
BLG - Bluegill
CCF - Channel Catfish
CP - Chain Pickerel
FWD - Freshwater Drum
GSF - Green Sunfish
KSB - Kentucky Spotted Bass
LMB - Largemouth Bass
LSF - Longear Sunfish
RB - Rock Bass / Goggle Eye
RSF - Redear Sunfish
RT - Rainbow Trout
SMB - Smallmouth Bass
WB - White Bass
WF - Whitefish
WL - WalleyeThe classic River Trips application is still available for use. It is updated with the new system using a data retrofit. It is no longer maintained. The original River Trips application is no longer updated (as of 1 Dec 2016) but can be checked for errors or for the condition of the data before it was converted to the new system.
| Observation | Height | Discharge | Maximum Discharge | Minimum Discharge | Mean Discharge | P05 | P10 | P20 | P25 | P50 (Median) | P75 | P80 | P90 | P95 |
|---|---|---|---|---|---|---|---|---|---|---|---|---|---|---|
| 2026-05-10 07:00 | 7.50 | 6240 | 109000 (1952) | 1000 (1963) | 24300 | 8020 | 9430 | 10300 | 10500 | 14400 | 33600 | 45000 | 57600 | 64600 |
| 2026-05-10 06:00 | 7.52 | 6290 | 109000 (1952) | 1000 (1963) | 24300 | 8020 | 9430 | 10300 | 10500 | 14400 | 33600 | 45000 | 57600 | 64600 |
| 2026-05-10 05:00 | 7.55 | 6380 | 109000 (1952) | 1000 (1963) | 24300 | 8020 | 9430 | 10300 | 10500 | 14400 | 33600 | 45000 | 57600 | 64600 |
| 2026-05-10 04:00 | 7.60 | 6530 | 109000 (1952) | 1000 (1963) | 24300 | 8020 | 9430 | 10300 | 10500 | 14400 | 33600 | 45000 | 57600 | 64600 |
| 2026-05-10 03:00 | 7.69 | 6810 | 109000 (1952) | 1000 (1963) | 24300 | 8020 | 9430 | 10300 | 10500 | 14400 | 33600 | 45000 | 57600 | 64600 |
| 2026-05-10 02:00 | 7.81 | 7180 | 109000 (1952) | 1000 (1963) | 24300 | 8020 | 9430 | 10300 | 10500 | 14400 | 33600 | 45000 | 57600 | 64600 |
| 2026-05-10 01:00 | 7.96 | 7670 | 109000 (1952) | 1000 (1963) | 24300 | 8020 | 9430 | 10300 | 10500 | 14400 | 33600 | 45000 | 57600 | 64600 |
| 2026-05-10 00:00 | 8.07 | 8040 | 109000 (1952) | 1000 (1963) | 24300 | 8020 | 9430 | 10300 | 10500 | 14400 | 33600 | 45000 | 57600 | 64600 |
| 2026-05-09 23:00 | 8.08 | 8070 | 109000 (1952) | 1000 (1963) | 24300 | 8020 | 9430 | 10300 | 10500 | 14400 | 33600 | 45000 | 57600 | 64600 |
| 2026-05-09 22:00 | 8.10 | 8140 | 112000 (1952) | 1010 (1963) | 23900 | 7050 | 9450 | 10200 | 10600 | 14400 | 35400 | 43100 | 52500 | 65600 |
| 2026-05-09 21:00 | 8.10 | 8140 | 112000 (1952) | 1010 (1963) | 23900 | 7050 | 9450 | 10200 | 10600 | 14400 | 35400 | 43100 | 52500 | 65600 |
| 2026-05-09 20:00 | 8.08 | 8070 | 112000 (1952) | 1010 (1963) | 23900 | 7050 | 9450 | 10200 | 10600 | 14400 | 35400 | 43100 | 52500 | 65600 |
| 2026-05-09 19:00 | 8.08 | 8070 | 112000 (1952) | 1010 (1963) | 23900 | 7050 | 9450 | 10200 | 10600 | 14400 | 35400 | 43100 | 52500 | 65600 |
| 2026-05-09 18:00 | 8.07 | 8040 | 112000 (1952) | 1010 (1963) | 23900 | 7050 | 9450 | 10200 | 10600 | 14400 | 35400 | 43100 | 52500 | 65600 |
| 2026-05-09 17:00 | 8.06 | 8000 | 112000 (1952) | 1010 (1963) | 23900 | 7050 | 9450 | 10200 | 10600 | 14400 | 35400 | 43100 | 52500 | 65600 |
| 2026-05-09 16:00 | 8.04 | 7940 | 112000 (1952) | 1010 (1963) | 23900 | 7050 | 9450 | 10200 | 10600 | 14400 | 35400 | 43100 | 52500 | 65600 |
| 2026-05-09 15:00 | 7.98 | 7740 | 112000 (1952) | 1010 (1963) | 23900 | 7050 | 9450 | 10200 | 10600 | 14400 | 35400 | 43100 | 52500 | 65600 |
| 2026-05-09 14:00 | 7.93 | 7570 | 112000 (1952) | 1010 (1963) | 23900 | 7050 | 9450 | 10200 | 10600 | 14400 | 35400 | 43100 | 52500 | 65600 |
| 2026-05-09 13:00 | 7.79 | 7120 | 112000 (1952) | 1010 (1963) | 23900 | 7050 | 9450 | 10200 | 10600 | 14400 | 35400 | 43100 | 52500 | 65600 |
| 2026-05-09 12:00 | 7.63 | 6620 | 112000 (1952) | 1010 (1963) | 23900 | 7050 | 9450 | 10200 | 10600 | 14400 | 35400 | 43100 | 52500 | 65600 |
| 2026-05-09 11:00 | 7.51 | 6260 | 112000 (1952) | 1010 (1963) | 23900 | 7050 | 9450 | 10200 | 10600 | 14400 | 35400 | 43100 | 52500 | 65600 |
| 2026-05-09 10:00 | 7.48 | 6180 | 112000 (1952) | 1010 (1963) | 23900 | 7050 | 9450 | 10200 | 10600 | 14400 | 35400 | 43100 | 52500 | 65600 |
| 2026-05-09 09:00 | 7.50 | 6240 | 112000 (1952) | 1010 (1963) | 23900 | 7050 | 9450 | 10200 | 10600 | 14400 | 35400 | 43100 | 52500 | 65600 |
| 2026-05-09 08:00 | 7.52 | 6290 | 112000 (1952) | 1010 (1963) | 23900 | 7050 | 9450 | 10200 | 10600 | 14400 | 35400 | 43100 | 52500 | 65600 |
| 2026-05-09 07:00 | 7.56 | 6410 | 112000 (1952) | 1010 (1963) | 23900 | 7050 | 9450 | 10200 | 10600 | 14400 | 35400 | 43100 | 52500 | 65600 |
| 2026-05-09 06:00 | 7.62 | 6590 | 112000 (1952) | 1010 (1963) | 23900 | 7050 | 9450 | 10200 | 10600 | 14400 | 35400 | 43100 | 52500 | 65600 |
| 2026-05-09 05:00 | 7.73 | 6930 | 112000 (1952) | 1010 (1963) | 23900 | 7050 | 9450 | 10200 | 10600 | 14400 | 35400 | 43100 | 52500 | 65600 |
| 2026-05-09 04:00 | 7.88 | 7410 | 112000 (1952) | 1010 (1963) | 23900 | 7050 | 9450 | 10200 | 10600 | 14400 | 35400 | 43100 | 52500 | 65600 |
| 2026-05-09 03:00 | 8.09 | 8110 | 112000 (1952) | 1010 (1963) | 23900 | 7050 | 9450 | 10200 | 10600 | 14400 | 35400 | 43100 | 52500 | 65600 |
| 2026-05-09 02:00 | 8.25 | 8660 | 112000 (1952) | 1010 (1963) | 23900 | 7050 | 9450 | 10200 | 10600 | 14400 | 35400 | 43100 | 52500 | 65600 |
| 2026-05-09 01:00 | 8.32 | 8910 | 112000 (1952) | 1010 (1963) | 23900 | 7050 | 9450 | 10200 | 10600 | 14400 | 35400 | 43100 | 52500 | 65600 |
| 2026-05-09 00:00 | 8.26 | 8700 | 112000 (1952) | 1010 (1963) | 23900 | 7050 | 9450 | 10200 | 10600 | 14400 | 35400 | 43100 | 52500 | 65600 |
| 2026-05-08 23:00 | 8.17 | 8380 | 112000 (1952) | 1010 (1963) | 23900 | 7050 | 9450 | 10200 | 10600 | 14400 | 35400 | 43100 | 52500 | 65600 |
| 2026-05-08 22:00 | 8.10 | 8140 | 108000 (1952) | 906 (1977) | 23500 | 7260 | 9080 | 10400 | 10800 | 14300 | 35500 | 43200 | 51300 | 63300 |
| 2026-05-08 21:00 | 8.10 | 8140 | 108000 (1952) | 906 (1977) | 23500 | 7260 | 9080 | 10400 | 10800 | 14300 | 35500 | 43200 | 51300 | 63300 |
| 2026-05-08 20:00 | 8.10 | 8140 | 108000 (1952) | 906 (1977) | 23500 | 7260 | 9080 | 10400 | 10800 | 14300 | 35500 | 43200 | 51300 | 63300 |
| 2026-05-08 19:00 | 8.10 | 8140 | 108000 (1952) | 906 (1977) | 23500 | 7260 | 9080 | 10400 | 10800 | 14300 | 35500 | 43200 | 51300 | 63300 |
| 2026-05-08 18:00 | 8.09 | 8110 | 108000 (1952) | 906 (1977) | 23500 | 7260 | 9080 | 10400 | 10800 | 14300 | 35500 | 43200 | 51300 | 63300 |
| 2026-05-08 17:00 | 8.09 | 8110 | 108000 (1952) | 906 (1977) | 23500 | 7260 | 9080 | 10400 | 10800 | 14300 | 35500 | 43200 | 51300 | 63300 |
| 2026-05-08 16:00 | 8.09 | 8110 | 108000 (1952) | 906 (1977) | 23500 | 7260 | 9080 | 10400 | 10800 | 14300 | 35500 | 43200 | 51300 | 63300 |
| 2026-05-08 15:00 | 8.07 | 8040 | 108000 (1952) | 906 (1977) | 23500 | 7260 | 9080 | 10400 | 10800 | 14300 | 35500 | 43200 | 51300 | 63300 |
| 2026-05-08 14:00 | 8.03 | 7900 | 108000 (1952) | 906 (1977) | 23500 | 7260 | 9080 | 10400 | 10800 | 14300 | 35500 | 43200 | 51300 | 63300 |
| 2026-05-08 13:00 | 8.00 | 7800 | 108000 (1952) | 906 (1977) | 23500 | 7260 | 9080 | 10400 | 10800 | 14300 | 35500 | 43200 | 51300 | 63300 |
| 2026-05-08 12:00 | 7.93 | 7570 | 108000 (1952) | 906 (1977) | 23500 | 7260 | 9080 | 10400 | 10800 | 14300 | 35500 | 43200 | 51300 | 63300 |
| 2026-05-08 11:00 | 7.82 | 7210 | 108000 (1952) | 906 (1977) | 23500 | 7260 | 9080 | 10400 | 10800 | 14300 | 35500 | 43200 | 51300 | 63300 |
| 2026-05-08 10:00 | 7.66 | 6710 | 108000 (1952) | 906 (1977) | 23500 | 7260 | 9080 | 10400 | 10800 | 14300 | 35500 | 43200 | 51300 | 63300 |
| 2026-05-08 09:00 | 7.55 | 6380 | 108000 (1952) | 906 (1977) | 23500 | 7260 | 9080 | 10400 | 10800 | 14300 | 35500 | 43200 | 51300 | 63300 |
| 2026-05-08 08:00 | 7.54 | 6350 | 108000 (1952) | 906 (1977) | 23500 | 7260 | 9080 | 10400 | 10800 | 14300 | 35500 | 43200 | 51300 | 63300 |
| 2026-05-08 07:00 | 7.57 | 6440 | 108000 (1952) | 906 (1977) | 23500 | 7260 | 9080 | 10400 | 10800 | 14300 | 35500 | 43200 | 51300 | 63300 |
| 2026-05-08 06:00 | 7.64 | 6650 | 108000 (1952) | 906 (1977) | 23500 | 7260 | 9080 | 10400 | 10800 | 14300 | 35500 | 43200 | 51300 | 63300 |
| 2026-05-08 05:00 | 7.74 | 6960 | 108000 (1952) | 906 (1977) | 23500 | 7260 | 9080 | 10400 | 10800 | 14300 | 35500 | 43200 | 51300 | 63300 |
| 2026-05-08 04:00 | 7.90 | 7470 | 108000 (1952) | 906 (1977) | 23500 | 7260 | 9080 | 10400 | 10800 | 14300 | 35500 | 43200 | 51300 | 63300 |
| 2026-05-08 03:00 | 8.13 | 8240 | 108000 (1952) | 906 (1977) | 23500 | 7260 | 9080 | 10400 | 10800 | 14300 | 35500 | 43200 | 51300 | 63300 |
| 2026-05-08 02:00 | 8.27 | 8740 | 108000 (1952) | 906 (1977) | 23500 | 7260 | 9080 | 10400 | 10800 | 14300 | 35500 | 43200 | 51300 | 63300 |
| 2026-05-08 01:00 | 8.32 | 8910 | 108000 (1952) | 906 (1977) | 23500 | 7260 | 9080 | 10400 | 10800 | 14300 | 35500 | 43200 | 51300 | 63300 |
| 2026-05-08 00:00 | 8.27 | 8740 | 108000 (1952) | 906 (1977) | 23500 | 7260 | 9080 | 10400 | 10800 | 14300 | 35500 | 43200 | 51300 | 63300 |
| 2026-05-07 23:00 | 8.19 | 8450 | 108000 (1952) | 906 (1977) | 23500 | 7260 | 9080 | 10400 | 10800 | 14300 | 35500 | 43200 | 51300 | 63300 |
| 2026-05-07 22:00 | 8.12 | 8210 | 99800 (1952) | 1010 (1963) | 22700 | 7130 | 8680 | 10200 | 10600 | 14800 | 32500 | 39000 | 50200 | 61900 |
| 2026-05-07 21:00 | 8.10 | 8140 | 99800 (1952) | 1010 (1963) | 22700 | 7130 | 8680 | 10200 | 10600 | 14800 | 32500 | 39000 | 50200 | 61900 |
| 2026-05-07 20:00 | 8.10 | 8140 | 99800 (1952) | 1010 (1963) | 22700 | 7130 | 8680 | 10200 | 10600 | 14800 | 32500 | 39000 | 50200 | 61900 |
| 2026-05-07 19:00 | 8.10 | 8140 | 99800 (1952) | 1010 (1963) | 22700 | 7130 | 8680 | 10200 | 10600 | 14800 | 32500 | 39000 | 50200 | 61900 |
| 2026-05-07 18:00 | 8.10 | 8140 | 99800 (1952) | 1010 (1963) | 22700 | 7130 | 8680 | 10200 | 10600 | 14800 | 32500 | 39000 | 50200 | 61900 |
| 2026-05-07 17:00 | 8.09 | 8110 | 99800 (1952) | 1010 (1963) | 22700 | 7130 | 8680 | 10200 | 10600 | 14800 | 32500 | 39000 | 50200 | 61900 |
| 2026-05-07 16:00 | 8.09 | 8110 | 99800 (1952) | 1010 (1963) | 22700 | 7130 | 8680 | 10200 | 10600 | 14800 | 32500 | 39000 | 50200 | 61900 |
| 2026-05-07 15:00 | 8.08 | 8070 | 99800 (1952) | 1010 (1963) | 22700 | 7130 | 8680 | 10200 | 10600 | 14800 | 32500 | 39000 | 50200 | 61900 |
| 2026-05-07 14:00 | 8.05 | 7970 | 99800 (1952) | 1010 (1963) | 22700 | 7130 | 8680 | 10200 | 10600 | 14800 | 32500 | 39000 | 50200 | 61900 |
| 2026-05-07 13:00 | 8.01 | 7840 | 99800 (1952) | 1010 (1963) | 22700 | 7130 | 8680 | 10200 | 10600 | 14800 | 32500 | 39000 | 50200 | 61900 |
| 2026-05-07 12:00 | 7.94 | 7600 | 99800 (1952) | 1010 (1963) | 22700 | 7130 | 8680 | 10200 | 10600 | 14800 | 32500 | 39000 | 50200 | 61900 |
| 2026-05-07 11:00 | 7.83 | 7250 | 99800 (1952) | 1010 (1963) | 22700 | 7130 | 8680 | 10200 | 10600 | 14800 | 32500 | 39000 | 50200 | 61900 |
| 2026-05-07 10:00 | 7.69 | 6810 | 99800 (1952) | 1010 (1963) | 22700 | 7130 | 8680 | 10200 | 10600 | 14800 | 32500 | 39000 | 50200 | 61900 |
| 2026-05-07 09:00 | 7.59 | 6500 | 99800 (1952) | 1010 (1963) | 22700 | 7130 | 8680 | 10200 | 10600 | 14800 | 32500 | 39000 | 50200 | 61900 |
| 2026-05-07 08:00 | 7.57 | 6440 | 99800 (1952) | 1010 (1963) | 22700 | 7130 | 8680 | 10200 | 10600 | 14800 | 32500 | 39000 | 50200 | 61900 |
| 2026-05-07 07:00 | 7.60 | 6530 | 99800 (1952) | 1010 (1963) | 22700 | 7130 | 8680 | 10200 | 10600 | 14800 | 32500 | 39000 | 50200 | 61900 |
| 2026-05-07 06:00 | 7.66 | 6710 | 99800 (1952) | 1010 (1963) | 22700 | 7130 | 8680 | 10200 | 10600 | 14800 | 32500 | 39000 | 50200 | 61900 |
| 2026-05-07 05:00 | 7.75 | 6990 | 99800 (1952) | 1010 (1963) | 22700 | 7130 | 8680 | 10200 | 10600 | 14800 | 32500 | 39000 | 50200 | 61900 |
| 2026-05-07 04:00 | 7.90 | 7470 | 99800 (1952) | 1010 (1963) | 22700 | 7130 | 8680 | 10200 | 10600 | 14800 | 32500 | 39000 | 50200 | 61900 |
| 2026-05-07 03:00 | 8.08 | 8070 | 99800 (1952) | 1010 (1963) | 22700 | 7130 | 8680 | 10200 | 10600 | 14800 | 32500 | 39000 | 50200 | 61900 |
| 2026-05-07 02:00 | 8.25 | 8660 | 99800 (1952) | 1010 (1963) | 22700 | 7130 | 8680 | 10200 | 10600 | 14800 | 32500 | 39000 | 50200 | 61900 |
| 2026-05-07 01:00 | 8.30 | 8840 | 99800 (1952) | 1010 (1963) | 22700 | 7130 | 8680 | 10200 | 10600 | 14800 | 32500 | 39000 | 50200 | 61900 |
| 2026-05-07 00:00 | 8.26 | 8700 | 99800 (1952) | 1010 (1963) | 22700 | 7130 | 8680 | 10200 | 10600 | 14800 | 32500 | 39000 | 50200 | 61900 |
| 2026-05-06 23:00 | 8.18 | 8420 | 99800 (1952) | 1010 (1963) | 22700 | 7130 | 8680 | 10200 | 10600 | 14800 | 32500 | 39000 | 50200 | 61900 |
| 2026-05-06 22:00 | 8.10 | 8140 | 89600 (1952) | 1010 (1963) | 22000 | 6660 | 8930 | 10100 | 10500 | 15400 | 30700 | 34800 | 49200 | 59900 |
| 2026-05-06 21:00 | 8.09 | 8110 | 89600 (1952) | 1010 (1963) | 22000 | 6660 | 8930 | 10100 | 10500 | 15400 | 30700 | 34800 | 49200 | 59900 |
| 2026-05-06 20:00 | 8.10 | 8140 | 89600 (1952) | 1010 (1963) | 22000 | 6660 | 8930 | 10100 | 10500 | 15400 | 30700 | 34800 | 49200 | 59900 |
| 2026-05-06 19:00 | 8.09 | 8110 | 89600 (1952) | 1010 (1963) | 22000 | 6660 | 8930 | 10100 | 10500 | 15400 | 30700 | 34800 | 49200 | 59900 |
| 2026-05-06 18:00 | 8.10 | 8140 | 89600 (1952) | 1010 (1963) | 22000 | 6660 | 8930 | 10100 | 10500 | 15400 | 30700 | 34800 | 49200 | 59900 |
| 2026-05-06 17:00 | 8.06 | 8000 | 89600 (1952) | 1010 (1963) | 22000 | 6660 | 8930 | 10100 | 10500 | 15400 | 30700 | 34800 | 49200 | 59900 |
| 2026-05-06 16:00 | 8.06 | 8000 | 89600 (1952) | 1010 (1963) | 22000 | 6660 | 8930 | 10100 | 10500 | 15400 | 30700 | 34800 | 49200 | 59900 |
| 2026-05-06 15:00 | 8.05 | 7970 | 89600 (1952) | 1010 (1963) | 22000 | 6660 | 8930 | 10100 | 10500 | 15400 | 30700 | 34800 | 49200 | 59900 |
| 2026-05-06 14:00 | 8.04 | 7940 | 89600 (1952) | 1010 (1963) | 22000 | 6660 | 8930 | 10100 | 10500 | 15400 | 30700 | 34800 | 49200 | 59900 |
| 2026-05-06 13:00 | 7.98 | 7740 | 89600 (1952) | 1010 (1963) | 22000 | 6660 | 8930 | 10100 | 10500 | 15400 | 30700 | 34800 | 49200 | 59900 |
| 2026-05-06 12:00 | 7.89 | 7440 | 89600 (1952) | 1010 (1963) | 22000 | 6660 | 8930 | 10100 | 10500 | 15400 | 30700 | 34800 | 49200 | 59900 |
| 2026-05-06 11:00 | 7.79 | 7120 | 89600 (1952) | 1010 (1963) | 22000 | 6660 | 8930 | 10100 | 10500 | 15400 | 30700 | 34800 | 49200 | 59900 |
| 2026-05-06 10:00 | 7.63 | 6620 | 89600 (1952) | 1010 (1963) | 22000 | 6660 | 8930 | 10100 | 10500 | 15400 | 30700 | 34800 | 49200 | 59900 |
| 2026-05-06 09:00 | 7.51 | 6260 | 89600 (1952) | 1010 (1963) | 22000 | 6660 | 8930 | 10100 | 10500 | 15400 | 30700 | 34800 | 49200 | 59900 |
| 2026-05-06 08:00 | 7.50 | 6240 | 89600 (1952) | 1010 (1963) | 22000 | 6660 | 8930 | 10100 | 10500 | 15400 | 30700 | 34800 | 49200 | 59900 |
| 2026-05-06 07:00 | 7.53 | 6320 | 89600 (1952) | 1010 (1963) | 22000 | 6660 | 8930 | 10100 | 10500 | 15400 | 30700 | 34800 | 49200 | 59900 |
| 2026-05-06 06:00 | 7.60 | 6530 | 89600 (1952) | 1010 (1963) | 22000 | 6660 | 8930 | 10100 | 10500 | 15400 | 30700 | 34800 | 49200 | 59900 |
| 2026-05-06 05:00 | 7.72 | 6900 | 89600 (1952) | 1010 (1963) | 22000 | 6660 | 8930 | 10100 | 10500 | 15400 | 30700 | 34800 | 49200 | 59900 |
| 2026-05-06 04:00 | 7.88 | 7410 | 89600 (1952) | 1010 (1963) | 22000 | 6660 | 8930 | 10100 | 10500 | 15400 | 30700 | 34800 | 49200 | 59900 |
| 2026-05-06 03:00 | 8.08 | 8070 | 89600 (1952) | 1010 (1963) | 22000 | 6660 | 8930 | 10100 | 10500 | 15400 | 30700 | 34800 | 49200 | 59900 |
| 2026-05-06 02:00 | 8.24 | 8630 | 89600 (1952) | 1010 (1963) | 22000 | 6660 | 8930 | 10100 | 10500 | 15400 | 30700 | 34800 | 49200 | 59900 |
| 2026-05-06 01:00 | 8.30 | 8840 | 89600 (1952) | 1010 (1963) | 22000 | 6660 | 8930 | 10100 | 10500 | 15400 | 30700 | 34800 | 49200 | 59900 |
| 2026-05-06 00:00 | 8.26 | 8700 | 89600 (1952) | 1010 (1963) | 22000 | 6660 | 8930 | 10100 | 10500 | 15400 | 30700 | 34800 | 49200 | 59900 |
| 2026-05-05 23:00 | 8.18 | 8420 | 89600 (1952) | 1010 (1963) | 22000 | 6660 | 8930 | 10100 | 10500 | 15400 | 30700 | 34800 | 49200 | 59900 |
| 2026-05-05 22:00 | 8.09 | 8110 | 77500 (1952) | 1010 (1963) | 21000 | 6720 | 8750 | 10300 | 10500 | 15000 | 27000 | 31700 | 47800 | 57800 |
| 2026-05-05 21:00 | 8.09 | 8110 | 77500 (1952) | 1010 (1963) | 21000 | 6720 | 8750 | 10300 | 10500 | 15000 | 27000 | 31700 | 47800 | 57800 |
| 2026-05-05 20:00 | 8.09 | 8110 | 77500 (1952) | 1010 (1963) | 21000 | 6720 | 8750 | 10300 | 10500 | 15000 | 27000 | 31700 | 47800 | 57800 |
| 2026-05-05 19:00 | 8.08 | 8070 | 77500 (1952) | 1010 (1963) | 21000 | 6720 | 8750 | 10300 | 10500 | 15000 | 27000 | 31700 | 47800 | 57800 |
| 2026-05-05 18:00 | 8.07 | 8040 | 77500 (1952) | 1010 (1963) | 21000 | 6720 | 8750 | 10300 | 10500 | 15000 | 27000 | 31700 | 47800 | 57800 |
| 2026-05-05 17:00 | 8.09 | 8110 | 77500 (1952) | 1010 (1963) | 21000 | 6720 | 8750 | 10300 | 10500 | 15000 | 27000 | 31700 | 47800 | 57800 |
| 2026-05-05 16:00 | 8.09 | 8110 | 77500 (1952) | 1010 (1963) | 21000 | 6720 | 8750 | 10300 | 10500 | 15000 | 27000 | 31700 | 47800 | 57800 |
| 2026-05-05 15:00 | 8.06 | 8000 | 77500 (1952) | 1010 (1963) | 21000 | 6720 | 8750 | 10300 | 10500 | 15000 | 27000 | 31700 | 47800 | 57800 |
| 2026-05-05 14:00 | 8.06 | 8000 | 77500 (1952) | 1010 (1963) | 21000 | 6720 | 8750 | 10300 | 10500 | 15000 | 27000 | 31700 | 47800 | 57800 |
| 2026-05-05 13:00 | 8.01 | 7840 | 77500 (1952) | 1010 (1963) | 21000 | 6720 | 8750 | 10300 | 10500 | 15000 | 27000 | 31700 | 47800 | 57800 |
| 2026-05-05 12:00 | 7.90 | 7470 | 77500 (1952) | 1010 (1963) | 21000 | 6720 | 8750 | 10300 | 10500 | 15000 | 27000 | 31700 | 47800 | 57800 |
| 2026-05-05 11:00 | 7.79 | 7120 | 77500 (1952) | 1010 (1963) | 21000 | 6720 | 8750 | 10300 | 10500 | 15000 | 27000 | 31700 | 47800 | 57800 |
| 2026-05-05 10:00 | 7.62 | 6590 | 77500 (1952) | 1010 (1963) | 21000 | 6720 | 8750 | 10300 | 10500 | 15000 | 27000 | 31700 | 47800 | 57800 |
| 2026-05-05 09:00 | 7.51 | 6260 | 77500 (1952) | 1010 (1963) | 21000 | 6720 | 8750 | 10300 | 10500 | 15000 | 27000 | 31700 | 47800 | 57800 |
| 2026-05-05 08:00 | 7.49 | 6210 | 77500 (1952) | 1010 (1963) | 21000 | 6720 | 8750 | 10300 | 10500 | 15000 | 27000 | 31700 | 47800 | 57800 |
| 2026-05-05 07:00 | 7.53 | 6320 | 77500 (1952) | 1010 (1963) | 21000 | 6720 | 8750 | 10300 | 10500 | 15000 | 27000 | 31700 | 47800 | 57800 |
| 2026-05-05 06:00 | 7.60 | 6530 | 77500 (1952) | 1010 (1963) | 21000 | 6720 | 8750 | 10300 | 10500 | 15000 | 27000 | 31700 | 47800 | 57800 |
| 2026-05-05 05:00 | 7.72 | 6900 | 77500 (1952) | 1010 (1963) | 21000 | 6720 | 8750 | 10300 | 10500 | 15000 | 27000 | 31700 | 47800 | 57800 |
| 2026-05-05 04:00 | 7.87 | 7370 | 77500 (1952) | 1010 (1963) | 21000 | 6720 | 8750 | 10300 | 10500 | 15000 | 27000 | 31700 | 47800 | 57800 |
| 2026-05-05 03:00 | 8.07 | 8040 | 77500 (1952) | 1010 (1963) | 21000 | 6720 | 8750 | 10300 | 10500 | 15000 | 27000 | 31700 | 47800 | 57800 |
| 2026-05-05 02:00 | 8.25 | 8660 | 77500 (1952) | 1010 (1963) | 21000 | 6720 | 8750 | 10300 | 10500 | 15000 | 27000 | 31700 | 47800 | 57800 |
| 2026-05-05 01:00 | 8.30 | 8840 | 77500 (1952) | 1010 (1963) | 21000 | 6720 | 8750 | 10300 | 10500 | 15000 | 27000 | 31700 | 47800 | 57800 |
| 2026-05-05 00:00 | 8.26 | 8700 | 77500 (1952) | 1010 (1963) | 21000 | 6720 | 8750 | 10300 | 10500 | 15000 | 27000 | 31700 | 47800 | 57800 |
| 2026-05-04 23:00 | 8.17 | 8380 | 77500 (1952) | 1010 (1963) | 21000 | 6720 | 8750 | 10300 | 10500 | 15000 | 27000 | 31700 | 47800 | 57800 |
| 2026-05-04 22:00 | 8.11 | 8170 | 69600 (1952) | 1010 (1963) | 20600 | 7690 | 8730 | 10300 | 10400 | 14400 | 26200 | 29600 | 48300 | 55700 |
| 2026-05-04 21:00 | 8.11 | 8170 | 69600 (1952) | 1010 (1963) | 20600 | 7690 | 8730 | 10300 | 10400 | 14400 | 26200 | 29600 | 48300 | 55700 |
| 2026-05-04 20:00 | 8.10 | 8140 | 69600 (1952) | 1010 (1963) | 20600 | 7690 | 8730 | 10300 | 10400 | 14400 | 26200 | 29600 | 48300 | 55700 |
| 2026-05-04 19:00 | 8.11 | 8170 | 69600 (1952) | 1010 (1963) | 20600 | 7690 | 8730 | 10300 | 10400 | 14400 | 26200 | 29600 | 48300 | 55700 |
| 2026-05-04 18:00 | 8.11 | 8170 | 69600 (1952) | 1010 (1963) | 20600 | 7690 | 8730 | 10300 | 10400 | 14400 | 26200 | 29600 | 48300 | 55700 |
| 2026-05-04 17:00 | 8.09 | 8110 | 69600 (1952) | 1010 (1963) | 20600 | 7690 | 8730 | 10300 | 10400 | 14400 | 26200 | 29600 | 48300 | 55700 |
| 2026-05-04 16:00 | 8.09 | 8110 | 69600 (1952) | 1010 (1963) | 20600 | 7690 | 8730 | 10300 | 10400 | 14400 | 26200 | 29600 | 48300 | 55700 |
| 2026-05-04 15:00 | 8.09 | 8110 | 69600 (1952) | 1010 (1963) | 20600 | 7690 | 8730 | 10300 | 10400 | 14400 | 26200 | 29600 | 48300 | 55700 |
| 2026-05-04 14:00 | 8.05 | 7970 | 69600 (1952) | 1010 (1963) | 20600 | 7690 | 8730 | 10300 | 10400 | 14400 | 26200 | 29600 | 48300 | 55700 |
| 2026-05-04 13:00 | 8.00 | 7800 | 69600 (1952) | 1010 (1963) | 20600 | 7690 | 8730 | 10300 | 10400 | 14400 | 26200 | 29600 | 48300 | 55700 |
| 2026-05-04 12:00 | 7.93 | 7570 | 69600 (1952) | 1010 (1963) | 20600 | 7690 | 8730 | 10300 | 10400 | 14400 | 26200 | 29600 | 48300 | 55700 |
| 2026-05-04 11:00 | 7.80 | 7150 | 69600 (1952) | 1010 (1963) | 20600 | 7690 | 8730 | 10300 | 10400 | 14400 | 26200 | 29600 | 48300 | 55700 |
| 2026-05-04 10:00 | 7.63 | 6620 | 69600 (1952) | 1010 (1963) | 20600 | 7690 | 8730 | 10300 | 10400 | 14400 | 26200 | 29600 | 48300 | 55700 |
| 2026-05-04 09:00 | 7.50 | 6240 | 69600 (1952) | 1010 (1963) | 20600 | 7690 | 8730 | 10300 | 10400 | 14400 | 26200 | 29600 | 48300 | 55700 |
| 2026-05-04 08:00 | 7.47 | 6150 | 69600 (1952) | 1010 (1963) | 20600 | 7690 | 8730 | 10300 | 10400 | 14400 | 26200 | 29600 | 48300 | 55700 |
| 2026-05-04 07:00 | 7.47 | 6150 | 69600 (1952) | 1010 (1963) | 20600 | 7690 | 8730 | 10300 | 10400 | 14400 | 26200 | 29600 | 48300 | 55700 |
| 2026-05-04 06:00 | 7.49 | 6210 | 69600 (1952) | 1010 (1963) | 20600 | 7690 | 8730 | 10300 | 10400 | 14400 | 26200 | 29600 | 48300 | 55700 |
| 2026-05-04 05:00 | 7.52 | 6290 | 69600 (1952) | 1010 (1963) | 20600 | 7690 | 8730 | 10300 | 10400 | 14400 | 26200 | 29600 | 48300 | 55700 |
| 2026-05-04 04:00 | 7.58 | 6470 | 69600 (1952) | 1010 (1963) | 20600 | 7690 | 8730 | 10300 | 10400 | 14400 | 26200 | 29600 | 48300 | 55700 |
| 2026-05-04 03:00 | 7.67 | 6740 | 69600 (1952) | 1010 (1963) | 20600 | 7690 | 8730 | 10300 | 10400 | 14400 | 26200 | 29600 | 48300 | 55700 |
| 2026-05-04 02:00 | 7.79 | 7120 | 69600 (1952) | 1010 (1963) | 20600 | 7690 | 8730 | 10300 | 10400 | 14400 | 26200 | 29600 | 48300 | 55700 |
| 2026-05-04 01:00 | 7.95 | 7640 | 69600 (1952) | 1010 (1963) | 20600 | 7690 | 8730 | 10300 | 10400 | 14400 | 26200 | 29600 | 48300 | 55700 |
| 2026-05-03 23:00 | 8140 | 69600 (1952) | 1010 (1963) | 20600 | 7690 | 8730 | 10300 | 10400 | 14400 | 26200 | 29600 | 48300 | 55700 | |
| 2026-05-03 22:00 | 8.06 | 8000 | 69000 (1938) | 1020 (1963) | 19900 | 7740 | 8970 | 10100 | 10200 | 14600 | 25200 | 27400 | 46500 | 51300 |
| 2026-05-03 21:00 | 8.11 | 8170 | 69000 (1938) | 1020 (1963) | 19900 | 7740 | 8970 | 10100 | 10200 | 14600 | 25200 | 27400 | 46500 | 51300 |
| 2026-05-03 20:00 | 8.11 | 8170 | 69000 (1938) | 1020 (1963) | 19900 | 7740 | 8970 | 10100 | 10200 | 14600 | 25200 | 27400 | 46500 | 51300 |
| 2026-05-03 19:00 | 8.09 | 8110 | 69000 (1938) | 1020 (1963) | 19900 | 7740 | 8970 | 10100 | 10200 | 14600 | 25200 | 27400 | 46500 | 51300 |
| 2026-05-03 18:00 | 8.05 | 7970 | 69000 (1938) | 1020 (1963) | 19900 | 7740 | 8970 | 10100 | 10200 | 14600 | 25200 | 27400 | 46500 | 51300 |
| 2026-05-03 17:00 | 8.06 | 8000 | 69000 (1938) | 1020 (1963) | 19900 | 7740 | 8970 | 10100 | 10200 | 14600 | 25200 | 27400 | 46500 | 51300 |
| 2026-05-03 16:00 | 8.05 | 7970 | 69000 (1938) | 1020 (1963) | 19900 | 7740 | 8970 | 10100 | 10200 | 14600 | 25200 | 27400 | 46500 | 51300 |
| 2026-05-03 15:00 | 8.01 | 7840 | 69000 (1938) | 1020 (1963) | 19900 | 7740 | 8970 | 10100 | 10200 | 14600 | 25200 | 27400 | 46500 | 51300 |
| 2026-05-03 14:00 | 7.93 | 7570 | 69000 (1938) | 1020 (1963) | 19900 | 7740 | 8970 | 10100 | 10200 | 14600 | 25200 | 27400 | 46500 | 51300 |
| 2026-05-03 13:00 | 7.80 | 7150 | 69000 (1938) | 1020 (1963) | 19900 | 7740 | 8970 | 10100 | 10200 | 14600 | 25200 | 27400 | 46500 | 51300 |
| 2026-05-03 12:00 | 7.63 | 6620 | 69000 (1938) | 1020 (1963) | 19900 | 7740 | 8970 | 10100 | 10200 | 14600 | 25200 | 27400 | 46500 | 51300 |
| 2026-05-03 11:00 | 7.49 | 6210 | 69000 (1938) | 1020 (1963) | 19900 | 7740 | 8970 | 10100 | 10200 | 14600 | 25200 | 27400 | 46500 | 51300 |
| 2026-05-03 10:00 | 7.47 | 6150 | 69000 (1938) | 1020 (1963) | 19900 | 7740 | 8970 | 10100 | 10200 | 14600 | 25200 | 27400 | 46500 | 51300 |
| 2026-05-03 09:00 | 7.47 | 6150 | 69000 (1938) | 1020 (1963) | 19900 | 7740 | 8970 | 10100 | 10200 | 14600 | 25200 | 27400 | 46500 | 51300 |
| 2026-05-03 08:00 | 7.47 | 6150 | 69000 (1938) | 1020 (1963) | 19900 | 7740 | 8970 | 10100 | 10200 | 14600 | 25200 | 27400 | 46500 | 51300 |
| 2026-05-03 07:00 | 7.49 | 6210 | 69000 (1938) | 1020 (1963) | 19900 | 7740 | 8970 | 10100 | 10200 | 14600 | 25200 | 27400 | 46500 | 51300 |
| 2026-05-03 06:00 | 7.50 | 6240 | 69000 (1938) | 1020 (1963) | 19900 | 7740 | 8970 | 10100 | 10200 | 14600 | 25200 | 27400 | 46500 | 51300 |
| 2026-05-03 05:00 | 7.53 | 6320 | 69000 (1938) | 1020 (1963) | 19900 | 7740 | 8970 | 10100 | 10200 | 14600 | 25200 | 27400 | 46500 | 51300 |
| 2026-05-03 04:00 | 7.58 | 6470 | 69000 (1938) | 1020 (1963) | 19900 | 7740 | 8970 | 10100 | 10200 | 14600 | 25200 | 27400 | 46500 | 51300 |
| 2026-05-03 03:00 | 7.67 | 6740 | 69000 (1938) | 1020 (1963) | 19900 | 7740 | 8970 | 10100 | 10200 | 14600 | 25200 | 27400 | 46500 | 51300 |
| 2026-05-03 02:00 | 7.80 | 7150 | 69000 (1938) | 1020 (1963) | 19900 | 7740 | 8970 | 10100 | 10200 | 14600 | 25200 | 27400 | 46500 | 51300 |
| 2026-05-03 01:00 | 7.96 | 7670 | 69000 (1938) | 1020 (1963) | 19900 | 7740 | 8970 | 10100 | 10200 | 14600 | 25200 | 27400 | 46500 | 51300 |
| 2026-05-03 00:00 | 8.08 | 8070 | 69000 (1938) | 1020 (1963) | 19900 | 7740 | 8970 | 10100 | 10200 | 14600 | 25200 | 27400 | 46500 | 51300 |
| 2026-05-02 23:00 | 8.11 | 8170 | 69000 (1938) | 1020 (1963) | 19900 | 7740 | 8970 | 10100 | 10200 | 14600 | 25200 | 27400 | 46500 | 51300 |
A total of 176 rows are displayed for years 1922 through 2025.